Impacts TAF Board INFO
IDs:

KMIA - Miami Intl, FL, US

Issued at 1414 UTC 10 Dec 2016
Updated at 1439 UTC 10 Dec 2016
Potential Impact None Slight Moderate High
Time1353Z 10/15Z 10/16Z 10/17Z 10/18Z 10/19Z 10/20Z 10/21Z 10/22Z 10/23Z 11/00Z 11/01Z 11/02Z 11/03Z
Type OBS PRVL
  [TEMP]  
PRVL
  [TEMP]  
PRVL PRVL PRVL PRVL PRVL PRVL PRVL PRVL PRVL PRVL PRVL
VIS 2 6
  [2]  
6
  [2]  
>6 >6 >6 >6 >6 >6 >6 >6 >6 >6 >6
CIG 25 35
  [25]  
35
  [25]  
35 35 35 35 35 35 35 35 35 35 35
Cover OVC BKN
  [BKN]  
BKN
  [BKN]  
BKN BKN BKN BKN BKN BKN BKN BKN BKN BKN BKN
FltCat IFR VFR
  [IFR]  
VFR
  [IFR]  
VFR VFR VFR VFR VFR VFR VFR VFR VFR VFR VFR
WX -RA BR BR VCSH
  [-SHRA BR]  
BR VCSH
  [-SHRA BR]  
VCSH VCSH VCSH VCSH VCSH VCSH VCSH VCSH VCSH VCSH VCSH
WDir 360 30
[VRB]
30
[VRB]
50 50 50 50 50 50 50 50 50 50 50
WSpd 5 11
  [6]  
11
  [6]  
17 17 17 17 17 17 17 17 17 17 17
WGst -- --
  [--]  
--
  [--]  
27 27 27 27 27 27 27 27 27 27 27

Raw TAF
KMIA 101414Z 1014/1112 03011KT 6SM BR VCSH FEW005 SCT020 BKN035
  TEMPO 1014/1017 VRB06KT 2SM -SHRA BR SCT005 BKN025
  FM101700 05017G27KT P6SM VCSH FEW010 SCT025 BKN035


Raw METAR
KMIA 101353Z 36005KT 2SM -RA BR SCT005 BKN025 OVC044 19/19 A3025 RMK AO2 SLP244 P0010 T01940194
KMIA 101317Z 33004KT 1 1/2SM -RA BR SCT008 BKN019 OVC035 19/19 A3024 RMK AO2 P0002 T01890189
KMIA 101253Z 35006KT 2SM -RA BR SCT005 BKN014 OVC043 18/18 A3023 RMK AO2 RAE37B50 SLP238 P0004 T01830183
KMIA 101241Z 35008KT 2SM BR SCT005 BKN013 OVC037 18/18 A3023 RMK AO2 RAE37 P0004 T01830183
KMIA 101233Z 35007KT 1 1/2SM -RA BR SCT005 BKN023 OVC037 18/18 A3023 RMK AO2 P0004 T01830183
KMIA 101205Z 35005KT 1 1/2SM -RA BR BKN005 OVC015 18/18 A3023 RMK AO2 P0000 T01830183
KMIA 101153Z VRB06KT 3SM -RA BR BKN005 OVC013 18/18 A3022 RMK AO2 SLP233 CB DSNT E P0008 60009 70009 T01830178 10183 20172 53008

METAR Board
Radar Display
Forecast Discussion